Time;durP1;ratioP1;P1;durP2;ratioP2;P2;SDS_P1;SDS_P2;PMS_P1;PMS_P2;Temp;Humidity;BMP_temperature;BMP_pressure;BME280_temperature;BME280_humidity;BME280_pressure;Samples;Min_cycle;Max_cycle;Signal;HPM_P1;HPM_P2
2022/08/01 00:00:37;;;;;;;12.60;7.38;;;17.50;99.90;;;;;;5067696;28;20696;-43
2022/08/01 00:03:03;;;;;;;10.40;6.30;;;18.40;99.90;;;;;;5074296;28;20097;-46
2022/08/01 00:05:30;;;;;;;8.20;5.68;;;17.70;99.90;;;;;;5074931;28;20060;-42
2022/08/01 00:07:56;;;;;;;8.65;5.88;;;17.80;99.90;;;;;;5073160;28;20054;-47
2022/08/01 00:10:22;;;;;;;8.10;5.35;;;17.50;99.90;;;;;;5073351;28;20416;-44
2022/08/01 00:12:48;;;;;;;8.13;5.15;;;17.60;99.90;;;;;;5073963;28;20042;-44
2022/08/01 00:15:16;;;;;;;7.10;4.97;;;19.60;99.90;;;;;;5075308;28;20482;-47
2022/08/01 00:17:42;;;;;;;10.65;5.10;;;18.50;99.90;;;;;;5072654;28;20061;-44
2022/08/01 00:20:10;;;;;;;6.40;4.28;;;17.90;99.90;;;;;;5074032;28;20209;-44
2022/08/01 00:22:36;;;;;;;7.78;4.45;;;17.50;99.90;;;;;;5073080;28;20177;-46
2022/08/01 00:25:04;;;;;;;8.00;4.10;;;19.20;99.90;;;;;;5075049;28;20128;-46
2022/08/01 00:27:31;;;;;;;5.97;3.40;;;17.50;99.90;;;;;;5072903;28;20552;-47
2022/08/01 00:29:57;;;;;;;5.13;3.25;;;17.40;99.90;;;;;;5073728;28;20048;-46
2022/08/01 00:32:22;;;;;;;6.07;3.10;;;17.30;99.90;;;;;;5074315;28;20055;-49
2022/08/01 00:34:48;;;;;;;5.30;3.72;;;17.40;99.90;;;;;;5072297;28;20117;-48
2022/08/01 00:37:14;;;;;;;7.63;3.90;;;18.00;99.90;;;;;;5072547;28;20050;-48
2022/08/01 00:39:39;;;;;;;6.82;4.43;;;17.50;99.90;;;;;;5071958;28;20040;-49
2022/08/01 00:42:10;;;;;;;9.20;4.43;;;18.20;99.90;;;;;;5074055;28;20064;-49
2022/08/01 00:44:36;;;;;;;6.97;4.30;;;17.60;99.90;;;;;;5073205;28;20046;-48
2022/08/01 00:47:04;;;;;;;9.00;4.60;;;17.40;99.90;;;;;;5072220;28;20032;-49
2022/08/01 00:49:30;;;;;;;9.43;5.10;;;17.50;99.90;;;;;;5073100;28;20050;-45
2022/08/01 00:51:58;;;;;;;11.55;5.22;;;18.10;99.90;;;;;;5073493;28;20040;-47
2022/08/01 00:54:25;;;;;;;8.48;4.82;;;17.30;99.90;;;;;;5073071;28;20122;-48
2022/08/01 00:56:51;;;;;;;10.35;4.88;;;18.80;99.90;;;;;;5071915;28;20343;-48
2022/08/01 00:59:17;;;;;;;8.10;5.35;;;17.50;99.90;;;;;;5074571;28;20036;-47
2022/08/01 01:01:43;;;;;;;6.38;4.53;;;17.60;99.90;;;;;;5073300;28;20127;-43
2022/08/01 01:04:09;;;;;;;8.13;5.32;;;18.00;99.90;;;;;;5072579;28;20526;-48
2022/08/01 01:06:46;;;;;;;10.48;5.30;;;17.30;99.90;;;;;;5072385;28;20430;-46
2022/08/01 01:09:26;;;;;;;12.35;5.70;;;17.50;99.90;;;;;;5073747;28;20504;-47
2022/08/01 01:12:07;;;;;;;8.93;5.38;;;17.40;99.90;;;;;;5076823;28;20576;-48
2022/08/01 01:14:38;;;;;;;9.05;5.97;;;17.40;99.90;;;;;;5076427;28;20734;-48
2022/08/01 01:17:07;;;;;;;8.52;5.50;;;19.60;99.90;;;;;;5076581;28;20028;-48
2022/08/01 01:19:38;;;;;;;9.45;4.80;;;17.40;99.90;;;;;;5077799;28;20493;-44
2022/08/01 01:22:41;;;;;;;6.63;4.03;;;17.60;99.90;;;;;;5077124;28;20384;-46
2022/08/01 01:25:36;;;;;;;8.30;3.85;;;17.40;99.90;;;;;;5078650;28;20051;-46
2022/08/01 01:28:13;;;;;;;10.50;3.83;;;17.40;99.90;;;;;;5053813;28;20052;-47
2022/08/01 01:30:42;;;;;;;10.43;2.95;;;17.30;99.90;;;;;;5055352;28;20054;-44
2022/08/01 01:33:11;;;;;;;5.43;2.10;;;18.30;99.90;;;;;;5054781;28;20079;-43
2022/08/01 01:35:42;;;;;;;5.90;2.30;;;18.80;99.90;;;;;;5053706;28;20040;-46
2022/08/01 01:38:19;;;;;;;8.30;2.58;;;17.30;99.90;;;;;;5053715;28;20080;-44
2022/08/01 01:40:47;;;;;;;6.72;2.58;;;18.00;99.90;;;;;;5053584;28;20059;-46
2022/08/01 01:43:14;;;;;;;7.72;2.47;;;17.70;99.90;;;;;;5053766;28;20052;-47
2022/08/01 01:45:41;;;;;;;7.03;2.33;;;16.80;99.90;;;;;;5052243;28;20045;-43
2022/08/01 01:48:10;;;;;;;7.38;2.53;;;17.10;99.90;;;;;;5053724;28;20040;-44
2022/08/01 01:50:36;;;;;;;9.57;2.22;;;19.30;99.90;;;;;;5054451;28;20720;-42
2022/08/01 01:53:05;;;;;;;7.72;2.25;;;17.00;99.90;;;;;;5053791;28;20071;-43
2022/08/01 01:55:32;;;;;;;8.63;2.40;;;17.00;99.90;;;;;;5052736;28;20051;-43
2022/08/01 01:57:59;;;;;;;7.45;2.20;;;17.00;99.90;;;;;;5053875;28;20103;-46
2022/08/01 02:00:26;;;;;;;9.45;2.45;;;16.90;99.90;;;;;;5054018;28;20518;-44
2022/08/01 02:02:53;;;;;;;8.55;2.40;;;16.90;99.90;;;;;;5053479;28;20416;-45
2022/08/01 02:05:20;;;;;;;11.63;2.30;;;16.90;99.90;;;;;;5060981;28;20063;-46
2022/08/01 02:07:48;;;;;;;10.75;3.90;;;18.50;99.90;;;;;;5076788;28;20357;-44
2022/08/01 02:10:17;;;;;;;11.15;2.50;;;18.70;99.90;;;;;;5076345;28;20047;-42
2022/08/01 02:12:45;;;;;;;11.45;2.95;;;17.60;99.90;;;;;;5075231;28;20373;-44
2022/08/01 02:15:13;;;;;;;7.43;2.60;;;16.80;99.90;;;;;;5075268;28;20078;-43
2022/08/01 02:17:43;;;;;;;14.38;2.90;;;17.50;99.90;;;;;;5074951;28;20519;-44
2022/08/01 02:20:09;;;;;;;12.35;2.85;;;16.80;99.90;;;;;;5076266;28;20044;-44
2022/08/01 02:22:42;;;;;;;10.43;3.03;;;16.80;99.90;;;;;;5074461;28;20044;-43
2022/08/01 02:25:22;;;;;;;14.55;3.10;;;18.40;99.90;;;;;;5076388;28;20075;-47
2022/08/01 02:28:05;;;;;;;13.00;3.30;;;16.90;99.90;;;;;;5075854;28;20404;-42
2022/08/01 02:30:35;;;;;;;12.10;3.70;;;16.80;99.90;;;;;;5076519;28;20040;-42
2022/08/01 02:33:16;;;;;;;15.70;3.63;;;18.40;99.90;;;;;;5077423;28;20422;-43
2022/08/01 02:35:43;;;;;;;14.68;2.90;;;16.60;99.90;;;;;;5076058;28;20032;-44
2022/08/01 02:38:12;;;;;;;13.07;3.72;;;18.60;99.90;;;;;;5074496;28;20071;-44
2022/08/01 02:40:43;;;;;;;17.83;3.35;;;16.50;99.90;;;;;;5074895;28;20036;-44
2022/08/01 02:43:12;;;;;;;16.93;3.27;;;16.60;99.90;;;;;;5075302;28;20756;-44
2022/08/01 02:45:44;;;;;;;19.42;3.70;;;16.70;99.90;;;;;;5076028;28;20040;-42
2022/08/01 02:48:13;;;;;;;14.13;3.60;;;16.70;99.90;;;;;;5076194;28;20320;-43
2022/08/01 02:50:42;;;;;;;11.27;3.20;;;16.50;99.90;;;;;;5075604;28;20048;-42
2022/08/01 02:53:10;;;;;;;13.63;3.10;;;17.10;99.90;;;;;;5075923;28;20202;-43
2022/08/01 02:55:40;;;;;;;11.20;3.10;;;16.50;99.90;;;;;;5074855;28;20035;-45
2022/08/01 02:58:08;;;;;;;15.20;3.40;;;18.40;99.90;;;;;;5075396;28;20048;-42
2022/08/01 03:00:35;;;;;;;14.27;3.63;;;16.70;99.90;;;;;;5075336;28;20040;-43
2022/08/01 03:03:04;;;;;;;13.15;3.63;;;16.50;99.90;;;;;;5075822;28;20067;-42
2022/08/01 03:05:31;;;;;;;16.73;4.30;;;17.10;99.90;;;;;;5075468;28;20295;-42
2022/08/01 03:07:59;;;;;;;14.43;4.60;;;16.60;99.90;;;;;;5073074;28;20056;-46
2022/08/01 03:10:28;;;;;;;16.20;4.30;;;18.70;99.90;;;;;;5075484;28;20939;-44
2022/08/01 03:12:55;;;;;;;12.63;3.97;;;16.40;99.90;;;;;;5075545;28;20480;-43
2022/08/01 03:15:22;;;;;;;15.18;4.38;;;18.60;99.90;;;;;;5073455;28;20055;-45
2022/08/01 03:17:51;;;;;;;13.57;4.25;;;16.40;99.90;;;;;;5073715;28;20094;-46
2022/08/01 03:20:20;;;;;;;14.15;4.03;;;17.80;99.90;;;;;;5075031;28;20044;-46
2022/08/01 03:22:48;;;;;;;13.05;3.90;;;18.30;99.90;;;;;;5073718;28;20125;-44
2022/08/01 03:25:15;;;;;;;21.73;4.90;;;18.30;99.90;;;;;;5073181;28;21488;-45
2022/08/01 03:27:43;;;;;;;19.83;4.53;;;16.40;99.90;;;;;;5074853;28;20511;-42
2022/08/01 03:30:10;;;;;;;21.88;4.70;;;17.90;99.90;;;;;;5075068;28;21150;-47
2022/08/01 03:32:39;;;;;;;19.42;4.95;;;16.40;99.90;;;;;;5073664;28;20414;-44
2022/08/01 03:35:06;;;;;;;25.00;4.78;;;16.50;99.90;;;;;;5073011;28;20047;-42
2022/08/01 03:37:46;;;;;;;20.27;4.20;;;16.30;99.90;;;;;;5073801;28;20059;-41
2022/08/01 03:40:16;;;;;;;13.02;3.95;;;17.90;99.90;;;;;;5073834;28;21215;-43
2022/08/01 03:42:45;;;;;;;16.92;3.90;;;16.40;99.90;;;;;;5073073;28;20127;-43
2022/08/01 03:45:22;;;;;;;20.67;3.53;;;16.40;99.90;;;;;;5073386;28;20117;-42
2022/08/01 03:47:50;;;;;;;18.25;3.92;;;16.30;99.90;;;;;;5074532;28;20137;-43
2022/08/01 03:50:19;;;;;;;18.85;3.83;;;18.00;99.90;;;;;;5075213;28;20044;-43
2022/08/01 03:52:47;;;;;;;18.60;3.85;;;18.30;99.90;;;;;;5060317;28;20055;-44
2022/08/01 03:55:16;;;;;;;17.80;4.13;;;16.30;99.90;;;;;;5073090;28;20310;-44
2022/08/01 03:57:44;;;;;;;15.48;3.58;;;16.30;99.90;;;;;;5073489;28;20094;-45
2022/08/01 04:00:10;;;;;;;18.40;4.13;;;16.30;99.90;;;;;;5074708;28;20055;-47
2022/08/01 04:02:38;;;;;;;19.58;4.28;;;16.20;99.90;;;;;;5074784;28;20409;-46
2022/08/01 04:05:04;;;;;;;14.50;3.90;;;16.20;99.90;;;;;;5073848;28;20040;-43
2022/08/01 04:07:32;;;;;;;18.20;3.80;;;16.30;99.90;;;;;;5073849;28;20032;-44
2022/08/01 04:09:58;;;;;;;23.48;4.40;;;16.50;99.90;;;;;;5074733;28;20044;-44
2022/08/01 04:12:24;;;;;;;28.23;4.78;;;16.40;99.90;;;;;;5073670;28;20050;-45
2022/08/01 04:14:50;;;;;;;19.38;3.17;;;16.30;99.90;;;;;;5073682;28;20084;-45
2022/08/01 04:17:18;;;;;;;14.90;3.45;;;18.30;99.90;;;;;;5074144;28;20609;-43
2022/08/01 04:19:44;;;;;;;20.55;3.95;;;16.10;99.90;;;;;;5073527;28;20078;-42
2022/08/01 04:22:12;;;;;;;16.10;2.75;;;16.70;99.90;;;;;;5073340;28;20060;-47
2022/08/01 04:24:42;;;;;;;21.42;4.32;;;15.90;99.90;;;;;;5073206;28;20068;-43
2022/08/01 04:27:15;;;;;;;15.48;2.88;;;18.30;99.90;;;;;;5074330;28;20115;-43
2022/08/01 04:29:42;;;;;;;21.58;3.88;;;17.10;99.90;;;;;;5074563;28;20036;-43
2022/08/01 04:32:12;;;;;;;18.95;3.38;;;16.30;99.90;;;;;;5073670;28;20042;-44
2022/08/01 04:34:40;;;;;;;15.05;3.00;;;16.50;99.90;;;;;;5072119;28;20518;-44
2022/08/01 04:37:09;;;;;;;22.20;4.03;;;17.30;99.90;;;;;;5072180;28;20154;-46
2022/08/01 04:39:39;;;;;;;19.90;3.67;;;16.10;99.90;;;;;;5072085;28;20056;-46
2022/08/01 04:42:06;;;;;;;16.92;3.35;;;17.10;99.90;;;;;;5072419;28;20040;-45
2022/08/01 04:44:34;;;;;;;22.45;3.88;;;15.90;99.90;;;;;;5073196;28;20173;-45
2022/08/01 04:47:03;;;;;;;22.10;3.38;;;15.90;99.90;;;;;;5072295;28;21340;-47
2022/08/01 04:49:34;;;;;;;21.27;3.53;;;16.20;99.90;;;;;;5072921;28;20051;-44
2022/08/01 04:52:00;;;;;;;22.25;3.67;;;15.90;99.90;;;;;;5073709;28;20136;-46
2022/08/01 04:54:30;;;;;;;19.23;3.15;;;16.00;99.90;;;;;;5072993;28;20148;-42
2022/08/01 04:56:59;;;;;;;20.30;3.53;;;17.60;99.90;;;;;;5071817;28;20348;-43
2022/08/01 04:59:39;;;;;;;14.65;3.30;;;16.00;99.90;;;;;;5073021;28;20044;-45
2022/08/01 05:02:08;;;;;;;;;;;15.80;99.90;;;;;;5073811;28;20072;-45
2022/08/01 05:04:34;;;;;;;18.35;4.05;;;17.60;99.90;;;;;;5073590;28;19924;-43
2022/08/01 05:07:00;;;;;;;14.43;2.97;;;15.90;99.90;;;;;;5072478;28;20051;-44
2022/08/01 05:09:26;;;;;;;17.08;3.65;;;16.00;99.90;;;;;;5072148;28;20035;-46
2022/08/01 05:11:53;;;;;;;15.27;2.80;;;15.80;99.90;;;;;;5071968;28;20471;-43
2022/08/01 05:14:19;;;;;;;17.10;3.47;;;15.80;99.90;;;;;;5071970;28;20509;-44
2022/08/01 05:16:45;;;;;;;24.95;3.80;;;15.80;99.90;;;;;;5072749;28;20044;-47
2022/08/01 05:19:12;;;;;;;18.02;3.20;;;15.90;99.90;;;;;;5072263;28;20036;-44
2022/08/01 05:21:37;;;;;;;17.38;4.10;;;17.90;99.90;;;;;;5073154;28;20040;-46
2022/08/01 05:24:04;;;;;;;19.02;3.08;;;17.10;99.90;;;;;;5073800;28;20047;-43
2022/08/01 05:26:30;;;;;;;18.00;3.22;;;15.80;99.90;;;;;;5072045;28;20046;-45
2022/08/01 05:28:56;;;;;;;18.50;3.83;;;15.90;99.90;;;;;;5073208;28;20044;-42
2022/08/01 05:31:23;;;;;;;21.08;3.80;;;16.30;99.90;;;;;;5074526;28;20040;-46
2022/08/01 05:33:49;;;;;;;12.60;3.13;;;17.20;99.90;;;;;;5072035;28;20412;-43
2022/08/01 05:36:15;;;;;;;20.73;3.40;;;15.80;99.90;;;;;;5073538;28;20048;-42
2022/08/01 05:38:42;;;;;;;22.25;3.05;;;15.70;99.90;;;;;;5086832;28;20056;-47
2022/08/01 05:41:08;;;;;;;17.45;3.30;;;16.00;99.90;;;;;;5073544;28;20051;-46
2022/08/01 05:43:34;;;;;;;17.75;3.22;;;17.10;99.90;;;;;;5074322;28;20408;-44
2022/08/01 05:46:01;;;;;;;22.15;3.55;;;15.80;99.90;;;;;;5073547;28;20052;-44
2022/08/01 05:48:27;;;;;;;21.13;3.10;;;17.00;99.90;;;;;;5073078;28;20127;-41
2022/08/01 05:50:53;;;;;;;19.95;4.15;;;15.80;99.90;;;;;;5073257;28;21180;-41
2022/08/01 05:53:19;;;;;;;18.30;3.10;;;15.80;99.90;;;;;;5073048;28;20127;-43
2022/08/01 05:55:45;;;;;;;16.48;3.10;;;15.80;99.90;;;;;;5072826;28;20040;-45
2022/08/01 05:58:11;;;;;;;21.75;3.63;;;16.80;99.90;;;;;;5075638;28;20032;-46
2022/08/01 06:00:36;;;;;;;19.42;3.20;;;16.60;99.90;;;;;;5076731;28;20047;-41
2022/08/01 06:03:04;;;;;;;22.70;4.03;;;16.00;99.90;;;;;;5075813;28;20069;-45
2022/08/01 06:05:30;;;;;;;19.10;3.17;;;17.00;99.90;;;;;;5076241;28;20040;-43
2022/08/01 06:07:55;;;;;;;21.15;3.47;;;16.30;99.90;;;;;;5076543;28;20234;-42
2022/08/01 06:10:21;;;;;;;21.30;3.95;;;16.00;99.90;;;;;;5075488;28;20048;-42
2022/08/01 06:12:47;;;;;;;19.45;3.70;;;16.00;99.90;;;;;;5076371;28;20279;-42
2022/08/01 06:15:12;;;;;;;26.85;3.75;;;16.10;99.90;;;;;;5075935;28;20040;-43
2022/08/01 06:17:39;;;;;;;20.45;3.65;;;16.10;99.90;;;;;;5074807;28;20156;-42
2022/08/01 06:20:06;;;;;;;24.30;3.78;;;16.10;99.90;;;;;;5075959;28;20074;-42
2022/08/01 06:22:34;;;;;;;18.58;3.85;;;16.20;99.90;;;;;;5073951;28;20101;-43
2022/08/01 06:24:59;;;;;;;16.77;4.00;;;17.00;99.90;;;;;;5075357;28;20093;-43
2022/08/01 06:27:25;;;;;;;16.75;3.58;;;15.90;99.90;;;;;;5075272;28;20048;-43
2022/08/01 06:29:53;;;;;;;17.13;3.08;;;16.50;99.90;;;;;;5075369;28;20100;-40
2022/08/01 06:32:20;;;;;;;18.23;2.85;;;17.00;99.90;;;;;;5075199;28;20796;-41
2022/08/01 06:34:45;;;;;;;18.52;3.20;;;18.40;99.90;;;;;;5074712;28;20040;-40
2022/08/01 06:37:14;;;;;;;19.33;2.85;;;16.20;99.90;;;;;;5074271;28;20032;-42
2022/08/01 06:39:40;;;;;;;21.02;3.20;;;16.20;99.90;;;;;;5074491;28;20080;-42
2022/08/01 06:42:05;;;;;;;19.63;3.05;;;18.50;99.90;;;;;;5075622;28;20043;-41
2022/08/01 06:44:33;;;;;;;21.25;3.38;;;16.30;99.90;;;;;;5074017;28;20212;-41
2022/08/01 06:46:58;;;;;;;19.23;2.95;;;15.70;99.90;;;;;;5074848;28;20320;-41
2022/08/01 06:49:24;;;;;;;17.63;3.03;;;16.40;99.90;;;;;;5075182;28;20103;-40
2022/08/01 06:51:50;;;;;;;15.98;2.95;;;16.60;99.90;;;;;;5075641;28;20112;-43
2022/08/01 06:54:16;;;;;;;19.02;3.38;;;16.50;99.90;;;;;;5074940;28;20900;-41
2022/08/01 06:56:42;;;;;;;15.52;2.92;;;17.80;99.90;;;;;;5074317;28;20067;-41
2022/08/01 06:59:08;;;;;;;21.02;3.05;;;16.80;99.90;;;;;;5075022;28;20059;-41
2022/08/01 07:01:35;;;;;;;17.00;2.95;;;17.40;99.90;;;;;;5074731;28;20400;-41
2022/08/01 07:04:02;;;;;;;13.55;3.05;;;17.00;99.90;;;;;;5074930;28;20048;-42
2022/08/01 07:06:28;;;;;;;13.40;2.28;;;17.20;99.90;;;;;;5074878;28;20085;-42
2022/08/01 07:08:54;;;;;;;15.98;2.58;;;18.00;99.90;;;;;;5075032;28;20040;-44
2022/08/01 07:11:21;;;;;;;13.57;2.60;;;17.50;99.90;;;;;;5073545;28;20478;-42
2022/08/01 07:13:47;;;;;;;16.98;2.67;;;19.50;99.90;;;;;;5073966;28;20401;-42
2022/08/01 07:16:15;;;;;;;13.43;3.25;;;18.60;99.90;;;;;;5075057;28;20510;-41
2022/08/01 07:18:41;;;;;;;15.00;2.30;;;17.50;99.00;;;;;;5074581;28;20404;-44
2022/08/01 07:21:07;;;;;;;15.60;2.38;;;18.20;97.10;;;;;;5074802;28;20122;-43
2022/08/01 07:23:36;;;;;;;12.90;2.60;;;17.40;92.00;;;;;;5072842;28;20043;-41
2022/08/01 07:26:03;;;;;;;14.48;2.20;;;18.60;92.00;;;;;;5073409;28;20052;-43
2022/08/01 07:28:29;;;;;;;17.55;2.78;;;17.80;95.20;;;;;;5073814;28;20684;-41
2022/08/01 07:30:55;;;;;;;12.70;1.98;;;18.20;91.00;;;;;;5074043;28;20143;-45
2022/08/01 07:33:22;;;;;;;12.93;2.33;;;19.30;91.00;;;;;;5074738;28;20048;-41
2022/08/01 07:35:48;;;;;;;13.55;2.72;;;20.30;78.00;;;;;;5073952;28;20078;-43
2022/08/01 07:38:16;;;;;;;10.85;2.13;;;20.50;55.70;;;;;;5071753;28;20222;-42
2022/08/01 07:40:44;;;;;;;17.80;2.50;;;20.20;49.00;;;;;;5074306;28;20504;-44
2022/08/01 07:43:10;;;;;;;13.65;1.95;;;20.90;32.70;;;;;;5074309;28;20044;-47
2022/08/01 07:45:35;;;;;;;10.45;2.00;;;20.00;34.50;;;;;;5072044;28;20032;-42
2022/08/01 07:48:07;;;;;;;12.90;2.33;;;20.20;25.60;;;;;;5073962;28;20051;-44
2022/08/01 07:50:33;;;;;;;13.40;2.97;;;21.00;15.20;;;;;;5073429;28;20159;-44
2022/08/01 07:53:00;;;;;;;12.38;2.15;;;21.40;19.00;;;;;;5072729;28;20063;-44
2022/08/01 07:55:27;;;;;;;16.73;2.50;;;21.30;1.00;;;;;;5074588;28;20385;-49
2022/08/01 07:57:53;;;;;;;12.55;2.20;;;21.10;1.00;;;;;;5073440;28;20173;-43
2022/08/01 08:00:19;;;;;;;13.52;2.15;;;20.50;1.00;;;;;;5073761;28;20470;-44
2022/08/01 08:02:48;;;;;;;9.15;2.40;;;20.10;13.80;;;;;;5074888;28;20045;-46
2022/08/01 08:05:14;;;;;;;12.23;1.80;;;20.50;1.00;;;;;;5072964;28;20036;-47
2022/08/01 08:07:39;;;;;;;10.32;2.20;;;21.90;1.00;;;;;;5074840;28;20051;-44
2022/08/01 08:10:07;;;;;;;9.90;1.92;;;22.50;1.00;;;;;;5072809;28;20106;-47
2022/08/01 08:12:33;;;;;;;11.82;1.90;;;22.70;99.90;;;;;;5073245;28;20036;-48
2022/08/01 08:15:00;;;;;;;9.70;1.83;;;22.70;1.00;;;;;;5074103;28;20035;-48
2022/08/01 08:17:26;;;;;;;11.70;2.85;;;24.30;99.90;;;;;;5074644;28;21476;-47
2022/08/01 08:19:51;;;;;;;8.82;2.40;;;22.10;99.90;;;;;;5073796;28;20070;-46
2022/08/01 08:22:17;;;;;;;11.25;2.00;;;21.90;99.90;;;;;;5074430;28;20504;-47
2022/08/01 08:24:45;;;;;;;11.60;1.85;;;21.60;99.90;;;;;;5073611;28;20051;-45
2022/08/01 08:27:11;;;;;;;13.07;1.88;;;20.90;99.90;;;;;;5074278;28;20074;-43
2022/08/01 08:29:36;;;;;;;13.10;2.13;;;20.50;99.90;;;;;;5075081;28;20122;-47
2022/08/01 08:32:04;;;;;;;8.82;1.42;;;20.60;99.90;;;;;;5073837;28;20068;-48
2022/08/01 08:34:30;;;;;;;11.43;1.80;;;20.20;1.00;;;;;;5073167;28;20036;-47
2022/08/01 08:36:57;;;;;;;10.80;1.80;;;19.90;1.00;;;;;;5073714;28;20458;-47
2022/08/01 08:39:23;;;;;;;11.52;2.13;;;20.30;1.00;;;;;;5072791;28;20056;-45
2022/08/01 08:41:53;;;;;;;15.60;3.00;;;20.30;1.00;;;;;;5073155;28;20052;-47
2022/08/01 08:44:22;;;;;;;11.48;1.73;;;20.60;1.00;;;;;;5073525;28;20056;-48
2022/08/01 08:46:50;;;;;;;10.15;1.60;;;21.50;1.00;;;;;;5073142;28;20048;-48
2022/08/01 08:49:20;;;;;;;14.13;1.95;;;20.60;1.00;;;;;;5072359;28;20037;-44
2022/08/01 08:51:48;;;;;;;12.27;1.92;;;20.80;1.00;;;;;;5072295;28;20043;-48
2022/08/01 08:54:15;;;;;;;11.23;1.55;;;20.40;1.00;;;;;;5072814;28;20445;-42
2022/08/01 08:56:43;;;;;;;12.02;2.20;;;20.10;1.00;;;;;;5071629;28;20032;-47
2022/08/01 08:59:13;;;;;;;11.32;2.47;;;20.10;1.00;;;;;;5073459;28;20051;-47
2022/08/01 09:01:39;;;;;;;11.05;2.00;;;20.30;1.00;;;;;;5073454;28;20040;-47
2022/08/01 09:04:05;;;;;;;14.55;2.05;;;19.80;1.00;;;;;;5072722;28;20550;-47
2022/08/01 09:06:32;;;;;;;8.85;1.40;;;21.60;1.00;;;;;;5072659;28;20257;-47
2022/08/01 09:08:58;;;;;;;9.95;1.90;;;20.00;1.00;;;;;;5072430;28;20036;-45
2022/08/01 09:11:24;;;;;;;13.13;2.15;;;19.90;1.00;;;;;;5073383;28;20039;-44
2022/08/01 09:14:09;;;;;;;8.70;1.60;;;20.10;1.00;;;;;;5072631;28;20511;-46
2022/08/01 09:16:37;;;;;;;10.07;1.65;;;20.50;1.00;;;;;;5073437;28;20086;-47
2022/08/01 09:19:17;;;;;;;8.38;1.58;;;20.40;1.00;;;;;;5073069;28;20044;-47
2022/08/01 09:22:00;;;;;;;10.32;1.88;;;20.30;1.00;;;;;;5072458;28;20518;-48
2022/08/01 09:24:27;;;;;;;9.52;1.95;;;20.70;1.00;;;;;;5073244;28;20036;-43
2022/08/01 09:26:54;;;;;;;10.65;1.90;;;21.10;1.00;;;;;;5072924;28;20105;-47
2022/08/01 09:29:28;;;;;;;9.25;1.90;;;22.80;99.90;;;;;;5071827;28;20040;-44
2022/08/01 09:31:55;;;;;;;9.98;1.95;;;21.10;99.90;;;;;;5077371;28;20176;-45
2022/08/01 09:34:30;;;;;;;9.93;1.60;;;21.00;99.90;;;;;;5077569;28;20083;-46
2022/08/01 09:36:58;;;;;;;11.98;2.25;;;20.80;99.90;;;;;;5076538;28;20047;-44
2022/08/01 09:39:36;;;;;;;8.98;1.85;;;22.50;99.90;;;;;;5076472;28;20060;-47
2022/08/01 09:42:19;;;;;;;12.23;1.95;;;20.60;99.90;;;;;;5075043;28;20778;-47
2022/08/01 09:44:48;;;;;;;9.18;1.42;;;20.60;99.90;;;;;;5076161;28;20063;-47
2022/08/01 09:47:13;;;;;;;7.30;1.85;;;20.30;99.90;;;;;;5075804;28;20036;-48
2022/08/01 09:49:41;;;;;;;11.30;2.00;;;19.20;99.90;;;;;;5073763;28;20145;-48
2022/08/01 09:52:25;;;;;;;8.27;1.33;;;21.60;99.90;;;;;;5076110;28;20159;-49
2022/08/01 09:55:00;;;;;;;9.98;1.63;;;20.50;1.00;;;;;;5073971;28;20055;-46
2022/08/01 09:57:28;;;;;;;5.80;1.30;;;20.30;99.90;;;;;;5075233;28;20043;-46
2022/08/01 09:59:56;;;;;;;7.35;1.80;;;20.50;99.90;;;;;;5074503;28;20121;-46
2022/08/01 10:02:31;;;;;;;8.88;1.55;;;20.40;99.90;;;;;;5075203;28;20083;-46
2022/08/01 10:04:56;;;;;;;8.02;1.63;;;18.90;99.90;;;;;;5076571;28;20058;-44
2022/08/01 10:07:22;;;;;;;10.48;1.58;;;20.50;99.90;;;;;;5076220;28;20407;-45
2022/08/01 10:09:48;;;;;;;8.10;1.38;;;21.40;61.50;;;;;;5076111;28;20105;-48
2022/08/01 10:12:18;;;;;;;10.43;1.48;;;20.90;1.00;;;;;;5076443;28;20042;-43
2022/08/01 10:14:46;;;;;;;9.57;1.85;;;21.00;99.90;;;;;;5075623;28;20040;-48
2022/08/01 10:17:15;;;;;;;11.90;1.65;;;20.40;99.90;;;;;;5076604;28;20044;-47
2022/08/01 10:19:42;;;;;;;11.55;1.75;;;20.30;1.00;;;;;;5075500;28;20130;-47
2022/08/01 10:22:09;;;;;;;9.60;1.88;;;20.20;99.90;;;;;;5074631;28;20820;-43
2022/08/01 10:24:40;;;;;;;7.75;1.40;;;22.50;99.90;;;;;;5073271;28;20431;-44
2022/08/01 10:27:10;;;;;;;8.90;1.43;;;20.40;1.00;;;;;;5075340;28;20043;-47
2022/08/01 10:29:57;;;;;;;7.75;2.00;;;20.40;41.10;;;;;;5074804;28;20040;-48
2022/08/01 10:32:23;;;;;;;12.02;1.70;;;21.10;99.90;;;;;;5075950;28;20123;-45
2022/08/01 10:34:50;;;;;;;10.80;1.80;;;21.10;99.90;;;;;;5077139;28;20500;-47
2022/08/01 10:37:17;;;;;;;8.38;1.60;;;20.80;99.90;;;;;;5075075;28;20142;-47
2022/08/01 10:39:43;;;;;;;12.25;1.88;;;20.70;99.90;;;;;;5075742;28;20044;-44
2022/08/01 10:42:11;;;;;;;10.07;1.60;;;20.90;99.90;;;;;;5075313;28;20035;-43
2022/08/01 10:44:38;;;;;;;9.65;1.58;;;20.80;99.90;;;;;;5075543;28;20032;-45
2022/08/01 10:47:15;;;;;;;8.80;1.27;;;20.90;99.90;;;;;;5075271;28;20063;-47
2022/08/01 10:50:06;;;;;;;5.45;1.30;;;23.10;99.90;;;;;;5076242;28;20665;-42
2022/08/01 10:52:32;;;;;;;7.88;1.27;;;21.70;99.90;;;;;;5075453;28;20134;-46
2022/08/01 10:55:11;;;;;;;9.45;1.73;;;21.70;99.90;;;;;;5074038;28;20115;-42
2022/08/01 10:57:47;;;;;;;12.10;2.50;;;21.70;99.90;;;;;;5074033;28;20736;-43
2022/08/01 11:00:21;;;;;;;10.60;1.67;;;21.20;99.90;;;;;;5074839;28;20097;-45
2022/08/01 11:03:01;;;;;;;8.15;1.45;;;20.80;99.90;;;;;;5075512;28;20496;-42
2022/08/01 11:05:34;;;;;;;7.80;1.60;;;21.40;99.90;;;;;;5076115;28;20044;-47
2022/08/01 11:08:09;;;;;;;8.65;1.40;;;21.20;99.90;;;;;;5075902;28;20044;-45
2022/08/01 11:10:45;;;;;;;12.45;1.73;;;21.20;99.90;;;;;;5075343;28;20036;-44
2022/08/01 11:13:13;;;;;;;9.35;1.77;;;21.10;99.90;;;;;;5074242;28;20051;-45
2022/08/01 11:15:40;;;;;;;7.55;1.15;;;21.30;99.90;;;;;;5074114;28;20511;-44
2022/08/01 11:18:31;;;;;;;9.13;1.60;;;20.90;99.90;;;;;;5074232;28;21072;-45
2022/08/01 11:20:59;;;;;;;13.65;1.75;;;21.20;99.90;;;;;;5073951;28;20040;-42
2022/08/01 11:23:27;;;;;;;8.27;1.83;;;21.30;99.90;;;;;;5074902;28;20830;-45
2022/08/01 11:25:53;;;;;;;6.82;1.20;;;21.80;99.90;;;;;;5075002;28;20039;-43
2022/08/01 11:28:23;;;;;;;8.60;1.30;;;22.10;99.90;;;;;;5074602;28;20052;-45
2022/08/01 11:30:51;;;;;;;9.45;1.52;;;21.80;99.90;;;;;;5074875;28;20040;-43
2022/08/01 11:33:39;;;;;;;8.02;1.40;;;21.90;99.90;;;;;;5074171;28;20044;-44
2022/08/01 11:36:13;;;;;;;9.95;1.75;;;21.60;99.90;;;;;;5074866;28;20044;-44
2022/08/01 11:39:05;;;;;;;5.10;1.15;;;21.00;99.90;;;;;;5074869;28;20060;-45
2022/08/01 11:41:32;;;;;;;;;;;21.10;99.90;;;;;;5032681;28;20107;-47
2022/08/01 11:44:05;;;;;;;11.00;1.50;;;21.50;99.90;;;;;;5032713;28;19964;-44
2022/08/01 11:46:48;;;;;;;5.05;1.20;;;21.60;99.90;;;;;;5032620;28;20144;-45
2022/08/01 11:49:36;;;;;;;8.77;1.40;;;21.70;99.90;;;;;;5032544;28;20033;-44
2022/08/01 11:52:08;;;;;;;6.97;1.10;;;21.90;99.90;;;;;;5032670;28;20055;-45
2022/08/01 11:54:45;;;;;;;8.77;1.42;;;21.90;99.90;;;;;;5031788;28;20721;-48
2022/08/01 11:57:20;;;;;;;4.38;1.08;;;22.60;99.90;;;;;;5016338;28;20664;-41
2022/08/01 11:59:48;;;;;;;6.30;1.08;;;21.20;99.90;;;;;;5032389;28;20053;-46
2022/08/01 12:02:29;;;;;;;6.82;1.60;;;21.00;99.90;;;;;;5032572;28;20200;-42
2022/08/01 12:05:04;;;;;;;12.45;1.50;;;21.00;99.90;;;;;;5033474;28;20049;-43
2022/08/01 12:07:32;;;;;;;7.82;1.40;;;21.20;99.90;;;;;;5033443;28;20044;-45
2022/08/01 12:10:04;;;;;;;5.40;1.10;;;21.50;99.90;;;;;;5031306;28;20052;-46
2022/08/01 12:12:32;;;;;;;9.25;2.08;;;21.70;99.90;;;;;;5031832;28;20194;-43
2022/08/01 12:15:00;;;;;;;8.93;0.93;;;22.60;99.90;;;;;;5031148;28;20110;-47
2022/08/01 12:17:31;;;;;;;9.23;1.42;;;21.50;99.90;;;;;;5033598;28;20510;-47
2022/08/01 12:19:57;;;;;;;6.60;1.00;;;21.80;99.90;;;;;;5072680;28;20492;-46
2022/08/01 12:22:24;;;;;;;7.03;1.48;;;21.80;99.90;;;;;;5074336;28;20065;-45
2022/08/01 12:24:51;;;;;;;8.50;1.75;;;22.20;99.90;;;;;;5074485;28;20078;-44
2022/08/01 12:27:29;;;;;;;6.97;1.13;;;21.40;99.90;;;;;;5073825;28;20036;-44
2022/08/01 12:29:57;;;;;;;8.30;1.55;;;21.50;99.90;;;;;;5073884;28;20080;-44
2022/08/01 12:32:27;;;;;;;6.50;1.45;;;21.60;99.90;;;;;;5073047;28;20153;-46
2022/08/01 12:34:56;;;;;;;9.93;1.38;;;21.70;99.90;;;;;;5073153;28;20613;-44
2022/08/01 12:37:24;;;;;;;8.02;1.33;;;21.80;99.90;;;;;;5073146;28;20032;-44
2022/08/01 12:39:49;;;;;;;6.15;1.20;;;22.40;99.90;;;;;;5073410;28;20040;-46
2022/08/01 12:42:15;;;;;;;5.85;1.00;;;22.10;99.90;;;;;;5073603;28;20039;-46
2022/08/01 12:44:44;;;;;;;8.60;1.23;;;21.90;99.90;;;;;;5073804;28;20103;-47
2022/08/01 12:47:10;;;;;;;8.07;1.20;;;21.80;99.90;;;;;;5072648;28;20048;-45
2022/08/01 12:49:39;;;;;;;7.43;1.30;;;21.70;99.90;;;;;;5073355;28;20642;-44
2022/08/01 12:52:05;;;;;;;7.60;1.30;;;23.50;99.90;;;;;;5072848;28;20083;-47